Time,TemperatureF,DewpointF,PressureIn,WindDirection,WindDirectionDegrees,WindSpeedMPH,WindSpeedGustMPH,Humidity,HourlyPrecipIn,Conditions,Clouds,dailyrainin,SolarRadiationWatts/m^2,SoftwareType,DateUTC
2013-07-26 00:22:00,63.0,51.0,-100.00,WNW,285,1.0,4.0,64,0.00,,,0.00,0.000000,,2013-07-26 07:22:00,
2013-07-26 00:32:00,63.0,51.0,-100.00,WNW,285,1.0,4.0,64,0.00,,,0.00,0.000000,,2013-07-26 07:32:00,
2013-07-26 00:43:00,63.0,51.0,-100.00,WNW,285,1.0,4.0,64,0.00,,,0.00,0.000000,,2013-07-26 07:43:00,
2013-07-26 00:50:00,62.0,51.0,-100.00,NNW,328,3.0,4.0,68,0.00,,,0.00,0.000000,,2013-07-26 07:50:00,
2013-07-26 01:22:00,62.0,51.0,-100.00,NNW,328,3.0,4.0,68,0.00,,,0.00,0.000000,,2013-07-26 08:22:00,
2013-07-26 01:32:00,62.0,51.0,-100.00,NNW,328,3.0,4.0,68,0.00,,,0.00,0.000000,,2013-07-26 08:32:00,
2013-07-26 01:44:00,62.0,51.0,-100.00,NNW,328,3.0,4.0,68,0.00,,,0.00,0.000000,,2013-07-26 08:44:00,
2013-07-26 01:50:00,60.0,51.0,-100.00,NNW,348,2.0,7.0,73,0.00,,,0.00,0.000000,,2013-07-26 08:50:00,
2013-07-26 02:12:00,60.0,51.0,-100.00,NNW,348,2.0,7.0,73,0.00,,,0.00,0.000000,,2013-07-26 09:12:00,
2013-07-26 02:22:00,60.0,51.0,-100.00,NNW,348,2.0,7.0,73,0.00,,,0.00,0.000000,,2013-07-26 09:22:00,
2013-07-26 02:32:00,60.0,51.0,-100.00,NNW,348,2.0,7.0,73,0.00,,,0.00,0.000000,,2013-07-26 09:32:00,
2013-07-26 02:43:00,60.0,51.0,-100.00,NNW,348,2.0,7.0,73,0.00,,,0.00,0.000000,,2013-07-26 09:43:00,
2013-07-26 02:50:00,58.0,51.0,-100.00,NNW,346,3.0,5.0,77,0.00,,,0.00,0.000000,,2013-07-26 09:50:00,
2013-07-26 03:22:00,58.0,51.0,-100.00,NNW,346,3.0,5.0,77,0.00,,,0.00,0.000000,,2013-07-26 10:22:00,
2013-07-26 03:32:00,58.0,51.0,-100.00,NNW,346,3.0,5.0,77,0.00,,,0.00,0.000000,,2013-07-26 10:32:00,
2013-07-26 03:42:00,58.0,51.0,-100.00,NNW,346,3.0,5.0,77,0.00,,,0.00,0.000000,,2013-07-26 10:42:00,
2013-07-26 03:50:00,56.0,51.0,-100.00,NNW,335,1.0,4.0,82,0.00,,,0.00,0.000000,,2013-07-26 10:50:00,
2013-07-26 04:22:00,56.0,51.0,-100.00,NNW,335,1.0,4.0,82,0.00,,,0.00,0.000000,,2013-07-26 11:22:00,
2013-07-26 04:32:00,56.0,51.0,-100.00,NNW,335,1.0,4.0,82,0.00,,,0.00,0.000000,,2013-07-26 11:32:00,
2013-07-26 04:43:00,56.0,51.0,-100.00,NNW,335,1.0,4.0,82,0.00,,,0.00,0.000000,,2013-07-26 11:43:00,
2013-07-26 04:50:00,54.0,50.0,-100.00,North,355,1.0,3.0,86,0.00,,,0.00,0.000000,,2013-07-26 11:50:00,
2013-07-26 05:22:00,54.0,50.0,-100.00,North,355,1.0,3.0,86,0.00,,,0.00,0.000000,,2013-07-26 12:22:00,
2013-07-26 05:33:00,54.0,50.0,-100.00,North,355,1.0,3.0,86,0.00,,,0.00,0.000000,,2013-07-26 12:33:00,
2013-07-26 05:43:00,54.0,50.0,-100.00,North,355,1.0,3.0,86,0.00,,,0.00,0.000000,,2013-07-26 12:43:00,
2013-07-26 05:50:00,53.0,50.0,-100.00,SSE,163,0.0,3.0,88,0.00,,,0.00,0.000000,,2013-07-26 12:50:00,
2013-07-26 06:22:00,53.0,50.0,-100.00,SSE,163,0.0,3.0,88,0.00,,,0.00,0.000000,,2013-07-26 13:22:00,
2013-07-26 06:32:00,53.0,50.0,-100.00,SSE,163,0.0,3.0,88,0.00,,,0.00,0.000000,,2013-07-26 13:32:00,
2013-07-26 06:43:00,53.0,50.0,-100.00,SSE,163,0.0,3.0,88,0.00,,,0.00,0.000000,,2013-07-26 13:43:00,
2013-07-26 06:50:00,53.0,50.0,-100.00,West,271,2.0,3.0,89,0.00,,,-99.99,8.000000,,2013-07-26 13:50:00,
2013-07-26 07:22:00,53.0,50.0,-100.00,West,271,2.0,3.0,89,0.00,,,-99.99,8.000000,,2013-07-26 14:22:00,
2013-07-26 07:32:00,53.0,50.0,-100.00,West,271,2.0,3.0,89,0.00,,,-99.99,8.000000,,2013-07-26 14:32:00,
2013-07-26 07:43:00,53.0,50.0,-100.00,West,271,2.0,3.0,89,0.00,,,-99.99,8.000000,,2013-07-26 14:43:00,
2013-07-26 07:50:00,58.0,54.0,-100.00,NW,309,3.0,4.0,87,0.00,,,0.00,84.000000,,2013-07-26 14:50:00,
2013-07-26 08:22:00,58.0,54.0,-100.00,NW,309,3.0,4.0,87,0.00,,,0.00,84.000000,,2013-07-26 15:22:00,
2013-07-26 08:32:00,58.0,54.0,-100.00,NW,309,3.0,4.0,87,0.00,,,0.00,84.000000,,2013-07-26 15:32:00,
2013-07-26 08:43:00,58.0,54.0,-100.00,NW,309,3.0,4.0,87,0.00,,,0.00,84.000000,,2013-07-26 15:43:00,
2013-07-26 08:50:00,63.0,53.0,-100.00,NNW,327,6.0,7.0,70,0.00,,,0.00,331.000000,,2013-07-26 15:50:00,
2013-07-26 09:22:00,63.0,53.0,-100.00,NNW,327,6.0,7.0,70,0.00,,,0.00,331.000000,,2013-07-26 16:22:00,
2013-07-26 09:32:00,63.0,53.0,-100.00,NNW,327,6.0,7.0,70,0.00,,,0.00,331.000000,,2013-07-26 16:32:00,
2013-07-26 09:43:00,63.0,53.0,-100.00,NNW,327,6.0,7.0,70,0.00,,,0.00,331.000000,,2013-07-26 16:43:00,
2013-07-26 09:50:00,70.0,55.0,-100.00,NW,314,6.0,9.0,59,0.00,,,0.00,513.000000,,2013-07-26 16:50:00,
2013-07-26 10:22:00,70.0,55.0,-100.00,NW,314,6.0,9.0,59,0.00,,,0.00,513.000000,,2013-07-26 17:22:00,
2013-07-26 10:33:00,70.0,55.0,-100.00,NW,314,6.0,9.0,59,0.00,,,0.00,513.000000,,2013-07-26 17:33:00,
2013-07-26 10:43:00,70.0,55.0,-100.00,NW,314,6.0,9.0,59,0.00,,,0.00,513.000000,,2013-07-26 17:43:00,
2013-07-26 10:50:00,77.0,57.0,-100.00,NW,309,5.0,10.0,50,0.00,,,0.00,677.000000,,2013-07-26 17:50:00,
2013-07-26 11:50:00,82.0,56.0,-100.00,NW,316,7.0,11.0,41,0.00,,,0.00,805.000000,,2013-07-26 18:50:00,
2013-07-26 13:22:00,88.0,56.0,-100.00,NW,322,6.0,11.0,34,0.00,,,0.00,887.000000,,2013-07-26 20:22:00,
2013-07-26 14:50:00,90.0,51.0,-100.00,NW,324,13.0,17.0,27,0.00,,,0.00,898.000000,,2013-07-26 21:50:00,
2013-07-26 15:32:00,90.0,51.0,-100.00,NW,324,13.0,17.0,27,0.00,,,0.00,898.000000,,2013-07-26 22:32:00,
2013-07-26 15:43:00,90.0,51.0,-100.00,NW,324,13.0,17.0,27,0.00,,,0.00,898.000000,,2013-07-26 22:43:00,
2013-07-26 15:50:00,87.0,54.0,-100.00,NNW,332,14.0,21.0,33,-99.99,,,0.00,817.000000,,2013-07-26 22:50:00,
2013-07-26 16:22:00,87.0,54.0,-100.00,NNW,332,14.0,21.0,33,-99.99,,,0.00,817.000000,,2013-07-26 23:22:00,
2013-07-26 16:32:00,87.0,54.0,-100.00,NNW,332,14.0,21.0,33,-99.99,,,0.00,817.000000,,2013-07-26 23:32:00,
2013-07-26 16:43:00,87.0,54.0,-100.00,NNW,332,14.0,21.0,33,-99.99,,,0.00,817.000000,,2013-07-26 23:43:00,
2013-07-26 16:50:00,83.0,53.0,-100.00,NNW,341,13.0,23.0,36,0.00,,,0.00,690.000000,,2013-07-26 23:50:00,
2013-07-26 17:22:00,83.0,53.0,-100.00,NNW,341,13.0,23.0,36,0.00,,,0.00,690.000000,,2013-07-27 00:22:00,
2013-07-26 17:32:00,83.0,53.0,-100.00,NNW,341,13.0,23.0,36,0.00,,,0.00,690.000000,,2013-07-27 00:32:00,
2013-07-26 17:42:00,83.0,53.0,-100.00,NNW,341,13.0,23.0,36,0.00,,,0.00,690.000000,,2013-07-27 00:42:00,
2013-07-26 17:50:00,81.0,54.0,-100.00,NNW,330,13.0,19.0,39,0.00,,,0.00,532.000000,,2013-07-27 00:50:00,
2013-07-26 18:22:00,81.0,54.0,-100.00,NNW,330,13.0,19.0,39,0.00,,,0.00,532.000000,,2013-07-27 01:22:00,
2013-07-26 18:32:00,81.0,54.0,-100.00,NNW,330,13.0,19.0,39,0.00,,,0.00,532.000000,,2013-07-27 01:32:00,
2013-07-26 18:43:00,81.0,54.0,-100.00,NNW,330,13.0,19.0,39,0.00,,,0.00,532.000000,,2013-07-27 01:43:00,
2013-07-26 18:50:00,78.0,52.0,-100.00,NNW,330,11.0,17.0,40,0.00,,,0.00,352.000000,,2013-07-27 01:50:00,
2013-07-26 19:22:00,78.0,52.0,-100.00,NNW,330,11.0,17.0,40,0.00,,,0.00,352.000000,,2013-07-27 02:22:00,
2013-07-26 19:32:00,78.0,52.0,-100.00,NNW,330,11.0,17.0,40,0.00,,,0.00,352.000000,,2013-07-27 02:32:00,
2013-07-26 19:43:00,78.0,52.0,-100.00,NNW,330,11.0,17.0,40,0.00,,,0.00,352.000000,,2013-07-27 02:43:00,
2013-07-26 19:50:00,76.0,53.0,-100.00,NW,315,6.0,14.0,45,0.00,,,0.00,171.000000,,2013-07-27 02:50:00,
2013-07-26 20:22:00,76.0,53.0,-100.00,NW,315,6.0,14.0,45,0.00,,,0.00,171.000000,,2013-07-27 03:22:00,
2013-07-26 20:32:00,76.0,53.0,-100.00,NW,315,6.0,14.0,45,0.00,,,0.00,171.000000,,2013-07-27 03:32:00,
2013-07-26 20:44:00,76.0,53.0,-100.00,NW,315,6.0,14.0,45,0.00,,,0.00,171.000000,,2013-07-27 03:44:00,
2013-07-26 20:50:00,69.0,52.0,-100.00,NNW,337,6.0,10.0,54,0.00,,,0.00,23.000000,,2013-07-27 03:50:00,
2013-07-26 21:22:00,69.0,52.0,-100.00,NNW,337,6.0,10.0,54,0.00,,,0.00,23.000000,,2013-07-27 04:22:00,
2013-07-26 21:32:00,69.0,52.0,-100.00,NNW,337,6.0,10.0,54,0.00,,,0.00,23.000000,,2013-07-27 04:32:00,
2013-07-26 21:43:00,69.0,52.0,-100.00,NNW,337,6.0,10.0,54,0.00,,,0.00,23.000000,,2013-07-27 04:43:00,
2013-07-26 21:50:00,65.0,52.0,-100.00,NNW,328,4.0,7.0,63,0.00,,,0.00,0.000000,,2013-07-27 04:50:00,
2013-07-26 22:22:00,65.0,52.0,-100.00,NNW,328,4.0,7.0,63,0.00,,,0.00,0.000000,,2013-07-27 05:22:00,
2013-07-26 22:32:00,65.0,52.0,-100.00,NNW,328,4.0,7.0,63,0.00,,,0.00,0.000000,,2013-07-27 05:32:00,
2013-07-26 22:43:00,65.0,52.0,-100.00,NNW,328,4.0,7.0,63,0.00,,,0.00,0.000000,,2013-07-27 05:43:00,
2013-07-26 22:50:00,61.0,52.0,-100.00,NNW,327,7.0,9.0,71,0.00,,,0.00,0.000000,,2013-07-27 05:50:00,
2013-07-26 23:22:00,61.0,52.0,-100.00,NNW,327,7.0,9.0,71,0.00,,,0.00,0.000000,,2013-07-27 06:22:00,
2013-07-26 23:33:00,61.0,52.0,-100.00,NNW,327,7.0,9.0,71,0.00,,,0.00,0.000000,,2013-07-27 06:33:00,
2013-07-26 23:43:00,61.0,52.0,-100.00,NNW,327,7.0,9.0,71,0.00,,,0.00,0.000000,,2013-07-27 06:43:00,
2013-07-26 23:50:00,58.0,52.0,-100.00,NNW,337,4.0,8.0,80,0.00,,,0.00,0.000000,,2013-07-27 06:50:00,